sensor_id;sensor_type;location;lat;lon;timestamp;P1;durP1;ratioP1;P2;durP2;ratioP2
81336;SDS011;70799;48.000;10.584;2023-08-06T00:01:49;5.00;;;2.40;;
81336;SDS011;70799;48.000;10.584;2023-08-06T00:04:23;4.20;;;2.25;;
81336;SDS011;70799;48.000;10.584;2023-08-06T00:06:56;3.85;;;2.47;;
81336;SDS011;70799;48.000;10.584;2023-08-06T00:09:29;5.15;;;3.30;;
81336;SDS011;70799;48.000;10.584;2023-08-06T00:12:02;5.25;;;2.50;;
81336;SDS011;70799;48.000;10.584;2023-08-06T00:14:36;4.63;;;2.83;;
81336;SDS011;70799;48.000;10.584;2023-08-06T00:17:09;4.25;;;2.53;;
81336;SDS011;70799;48.000;10.584;2023-08-06T00:19:42;5.25;;;2.97;;
81336;SDS011;70799;48.000;10.584;2023-08-06T00:22:15;6.78;;;3.10;;
81336;SDS011;70799;48.000;10.584;2023-08-06T00:24:48;5.68;;;3.17;;
81336;SDS011;70799;48.000;10.584;2023-08-06T00:27:21;4.10;;;2.60;;
81336;SDS011;70799;48.000;10.584;2023-08-06T00:29:54;6.38;;;3.70;;
81336;SDS011;70799;48.000;10.584;2023-08-06T00:32:27;5.28;;;2.83;;
81336;SDS011;70799;48.000;10.584;2023-08-06T00:35:02;5.35;;;2.97;;
81336;SDS011;70799;48.000;10.584;2023-08-06T00:37:35;4.68;;;3.03;;
81336;SDS011;70799;48.000;10.584;2023-08-06T00:40:08;5.50;;;3.65;;
81336;SDS011;70799;48.000;10.584;2023-08-06T00:42:41;4.93;;;2.90;;
81336;SDS011;70799;48.000;10.584;2023-08-06T00:45:16;5.38;;;2.80;;
81336;SDS011;70799;48.000;10.584;2023-08-06T00:47:49;5.25;;;3.20;;
81336;SDS011;70799;48.000;10.584;2023-08-06T00:50:22;4.30;;;2.67;;
81336;SDS011;70799;48.000;10.584;2023-08-06T00:52:55;5.50;;;2.30;;
81336;SDS011;70799;48.000;10.584;2023-08-06T00:55:28;5.00;;;2.58;;
81336;SDS011;70799;48.000;10.584;2023-08-06T00:58:01;5.07;;;2.90;;
81336;SDS011;70799;48.000;10.584;2023-08-06T01:00:35;5.72;;;2.78;;
81336;SDS011;70799;48.000;10.584;2023-08-06T01:03:09;5.07;;;2.85;;
81336;SDS011;70799;48.000;10.584;2023-08-06T01:05:42;5.97;;;2.90;;
81336;SDS011;70799;48.000;10.584;2023-08-06T01:11:00;6.00;;;2.90;;
81336;SDS011;70799;48.000;10.584;2023-08-06T01:14:08;3.83;;;2.00;;
81336;SDS011;70799;48.000;10.584;2023-08-06T01:16:49;3.25;;;2.22;;
81336;SDS011;70799;48.000;10.584;2023-08-06T01:19:25;4.50;;;3.05;;
81336;SDS011;70799;48.000;10.584;2023-08-06T01:21:58;3.80;;;2.40;;
81336;SDS011;70799;48.000;10.584;2023-08-06T01:24:32;5.50;;;3.33;;
81336;SDS011;70799;48.000;10.584;2023-08-06T01:32:46;5.95;;;2.92;;
81336;SDS011;70799;48.000;10.584;2023-08-06T01:35:22;4.55;;;2.20;;
81336;SDS011;70799;48.000;10.584;2023-08-06T01:37:56;4.50;;;2.67;;
81336;SDS011;70799;48.000;10.584;2023-08-06T01:40:29;5.35;;;2.65;;
81336;SDS011;70799;48.000;10.584;2023-08-06T01:43:02;5.63;;;2.80;;
81336;SDS011;70799;48.000;10.584;2023-08-06T01:45:35;3.78;;;2.67;;
81336;SDS011;70799;48.000;10.584;2023-08-06T01:48:08;5.40;;;3.03;;
81336;SDS011;70799;48.000;10.584;2023-08-06T01:50:41;6.10;;;2.58;;
81336;SDS011;70799;48.000;10.584;2023-08-06T01:53:13;5.50;;;3.15;;
81336;SDS011;70799;48.000;10.584;2023-08-06T01:55:47;5.10;;;2.70;;
81336;SDS011;70799;48.000;10.584;2023-08-06T01:58:21;3.95;;;2.22;;
81336;SDS011;70799;48.000;10.584;2023-08-06T02:00:54;4.05;;;2.40;;
81336;SDS011;70799;48.000;10.584;2023-08-06T02:03:28;3.60;;;2.25;;
81336;SDS011;70799;48.000;10.584;2023-08-06T02:06:01;4.22;;;2.03;;
81336;SDS011;70799;48.000;10.584;2023-08-06T02:08:41;5.20;;;2.55;;
81336;SDS011;70799;48.000;10.584;2023-08-06T02:11:30;4.97;;;2.40;;
81336;SDS011;70799;48.000;10.584;2023-08-06T02:14:23;4.10;;;2.60;;
81336;SDS011;70799;48.000;10.584;2023-08-06T02:17:28;4.25;;;2.00;;
81336;SDS011;70799;48.000;10.584;2023-08-06T02:20:22;4.22;;;2.05;;
81336;SDS011;70799;48.000;10.584;2023-08-06T02:23:05;4.80;;;2.33;;
81336;SDS011;70799;48.000;10.584;2023-08-06T02:26:08;5.25;;;2.30;;
81336;SDS011;70799;48.000;10.584;2023-08-06T02:29:05;4.28;;;2.00;;
81336;SDS011;70799;48.000;10.584;2023-08-06T02:31:47;4.20;;;2.17;;
81336;SDS011;70799;48.000;10.584;2023-08-06T02:34:21;3.38;;;2.15;;
81336;SDS011;70799;48.000;10.584;2023-08-06T02:36:54;4.22;;;2.17;;
81336;SDS011;70799;48.000;10.584;2023-08-06T02:39:27;3.97;;;2.33;;
81336;SDS011;70799;48.000;10.584;2023-08-06T02:42:02;4.95;;;1.90;;
81336;SDS011;70799;48.000;10.584;2023-08-06T02:44:35;4.70;;;1.80;;
81336;SDS011;70799;48.000;10.584;2023-08-06T02:47:08;4.10;;;2.20;;
81336;SDS011;70799;48.000;10.584;2023-08-06T02:49:41;4.50;;;2.42;;
81336;SDS011;70799;48.000;10.584;2023-08-06T02:52:16;3.70;;;1.88;;
81336;SDS011;70799;48.000;10.584;2023-08-06T02:54:50;5.05;;;2.28;;
81336;SDS011;70799;48.000;10.584;2023-08-06T02:57:23;3.67;;;2.00;;
81336;SDS011;70799;48.000;10.584;2023-08-06T02:59:58;4.28;;;2.42;;
81336;SDS011;70799;48.000;10.584;2023-08-06T03:02:35;4.13;;;2.25;;
81336;SDS011;70799;48.000;10.584;2023-08-06T03:05:20;4.00;;;2.25;;
81336;SDS011;70799;48.000;10.584;2023-08-06T03:07:54;5.63;;;2.17;;
81336;SDS011;70799;48.000;10.584;2023-08-06T03:10:30;6.00;;;2.78;;
81336;SDS011;70799;48.000;10.584;2023-08-06T03:13:07;4.47;;;2.75;;
81336;SDS011;70799;48.000;10.584;2023-08-06T03:15:40;4.28;;;2.92;;
81336;SDS011;70799;48.000;10.584;2023-08-06T03:18:16;6.00;;;3.05;;
81336;SDS011;70799;48.000;10.584;2023-08-06T03:20:49;3.83;;;2.15;;
81336;SDS011;70799;48.000;10.584;2023-08-06T03:23:22;4.70;;;2.40;;
81336;SDS011;70799;48.000;10.584;2023-08-06T03:25:55;6.05;;;2.97;;
81336;SDS011;70799;48.000;10.584;2023-08-06T03:28:29;5.50;;;2.70;;
81336;SDS011;70799;48.000;10.584;2023-08-06T03:31:02;4.28;;;2.33;;
81336;SDS011;70799;48.000;10.584;2023-08-06T03:33:42;6.00;;;2.53;;
81336;SDS011;70799;48.000;10.584;2023-08-06T03:36:19;5.30;;;2.35;;
81336;SDS011;70799;48.000;10.584;2023-08-06T03:38:54;6.15;;;2.53;;
81336;SDS011;70799;48.000;10.584;2023-08-06T03:41:27;5.43;;;2.70;;
81336;SDS011;70799;48.000;10.584;2023-08-06T03:44:00;4.63;;;2.53;;
81336;SDS011;70799;48.000;10.584;2023-08-06T03:46:36;4.75;;;2.75;;
81336;SDS011;70799;48.000;10.584;2023-08-06T03:49:11;4.43;;;2.80;;
81336;SDS011;70799;48.000;10.584;2023-08-06T03:51:45;4.30;;;2.35;;
81336;SDS011;70799;48.000;10.584;2023-08-06T03:54:18;4.35;;;2.67;;
81336;SDS011;70799;48.000;10.584;2023-08-06T03:56:52;4.35;;;2.40;;
81336;SDS011;70799;48.000;10.584;2023-08-06T03:59:25;5.93;;;2.60;;
81336;SDS011;70799;48.000;10.584;2023-08-06T04:02:03;5.13;;;2.60;;
81336;SDS011;70799;48.000;10.584;2023-08-06T04:04:36;5.65;;;3.17;;
81336;SDS011;70799;48.000;10.584;2023-08-06T04:07:09;5.90;;;2.67;;
81336;SDS011;70799;48.000;10.584;2023-08-06T04:09:52;5.40;;;2.60;;
81336;SDS011;70799;48.000;10.584;2023-08-06T04:12:26;4.63;;;2.38;;
81336;SDS011;70799;48.000;10.584;2023-08-06T04:15:00;3.10;;;1.90;;
81336;SDS011;70799;48.000;10.584;2023-08-06T04:17:35;5.40;;;2.13;;
81336;SDS011;70799;48.000;10.584;2023-08-06T04:20:08;4.28;;;2.20;;
81336;SDS011;70799;48.000;10.584;2023-08-06T04:22:41;4.72;;;2.20;;
81336;SDS011;70799;48.000;10.584;2023-08-06T04:25:14;4.53;;;2.00;;
81336;SDS011;70799;48.000;10.584;2023-08-06T04:27:52;3.58;;;1.90;;
81336;SDS011;70799;48.000;10.584;2023-08-06T04:30:25;4.53;;;2.10;;
81336;SDS011;70799;48.000;10.584;2023-08-06T04:32:58;4.28;;;2.20;;
81336;SDS011;70799;48.000;10.584;2023-08-06T04:35:34;4.10;;;2.35;;
81336;SDS011;70799;48.000;10.584;2023-08-06T04:38:07;4.07;;;1.95;;
81336;SDS011;70799;48.000;10.584;2023-08-06T04:40:41;4.35;;;2.00;;
81336;SDS011;70799;48.000;10.584;2023-08-06T04:43:14;3.85;;;2.30;;
81336;SDS011;70799;48.000;10.584;2023-08-06T04:45:48;7.55;;;2.20;;
81336;SDS011;70799;48.000;10.584;2023-08-06T04:48:22;4.03;;;1.98;;
81336;SDS011;70799;48.000;10.584;2023-08-06T04:50:55;3.22;;;1.63;;
81336;SDS011;70799;48.000;10.584;2023-08-06T04:53:28;3.20;;;1.67;;
81336;SDS011;70799;48.000;10.584;2023-08-06T04:56:01;4.38;;;1.45;;
81336;SDS011;70799;48.000;10.584;2023-08-06T04:58:34;2.85;;;1.40;;
81336;SDS011;70799;48.000;10.584;2023-08-06T05:01:10;3.20;;;1.50;;
81336;SDS011;70799;48.000;10.584;2023-08-06T05:03:44;3.58;;;1.20;;
81336;SDS011;70799;48.000;10.584;2023-08-06T05:06:17;3.85;;;1.77;;
81336;SDS011;70799;48.000;10.584;2023-08-06T05:08:49;2.95;;;1.38;;
81336;SDS011;70799;48.000;10.584;2023-08-06T05:11:23;2.70;;;1.50;;
81336;SDS011;70799;48.000;10.584;2023-08-06T05:13:57;5.55;;;1.30;;
81336;SDS011;70799;48.000;10.584;2023-08-06T05:16:32;3.28;;;1.08;;
81336;SDS011;70799;48.000;10.584;2023-08-06T05:19:05;2.83;;;1.00;;
81336;SDS011;70799;48.000;10.584;2023-08-06T05:21:38;3.40;;;1.13;;
81336;SDS011;70799;48.000;10.584;2023-08-06T05:24:11;2.65;;;1.05;;
81336;SDS011;70799;48.000;10.584;2023-08-06T05:26:44;2.58;;;1.05;;
81336;SDS011;70799;48.000;10.584;2023-08-06T05:29:19;3.08;;;1.17;;
81336;SDS011;70799;48.000;10.584;2023-08-06T05:31:52;2.10;;;0.98;;
81336;SDS011;70799;48.000;10.584;2023-08-06T05:34:25;4.18;;;1.48;;
81336;SDS011;70799;48.000;10.584;2023-08-06T05:36:58;2.78;;;1.20;;
81336;SDS011;70799;48.000;10.584;2023-08-06T05:39:33;3.13;;;1.25;;
81336;SDS011;70799;48.000;10.584;2023-08-06T05:42:06;2.15;;;0.90;;
81336;SDS011;70799;48.000;10.584;2023-08-06T05:44:39;2.75;;;1.17;;
81336;SDS011;70799;48.000;10.584;2023-08-06T05:47:13;2.40;;;1.30;;
81336;SDS011;70799;48.000;10.584;2023-08-06T05:49:46;2.00;;;1.10;;
81336;SDS011;70799;48.000;10.584;2023-08-06T05:52:19;2.42;;;0.98;;
81336;SDS011;70799;48.000;10.584;2023-08-06T05:54:52;2.17;;;0.98;;
81336;SDS011;70799;48.000;10.584;2023-08-06T05:57:26;3.00;;;0.93;;
81336;SDS011;70799;48.000;10.584;2023-08-06T05:59:59;3.17;;;1.50;;
81336;SDS011;70799;48.000;10.584;2023-08-06T06:02:42;2.80;;;1.00;;
81336;SDS011;70799;48.000;10.584;2023-08-06T06:05:15;2.65;;;0.88;;
81336;SDS011;70799;48.000;10.584;2023-08-06T06:07:48;2.50;;;0.90;;
81336;SDS011;70799;48.000;10.584;2023-08-06T06:10:21;3.22;;;1.30;;
81336;SDS011;70799;48.000;10.584;2023-08-06T06:12:54;1.98;;;1.02;;
81336;SDS011;70799;48.000;10.584;2023-08-06T06:15:27;4.60;;;1.30;;
81336;SDS011;70799;48.000;10.584;2023-08-06T06:18:00;2.95;;;1.13;;
81336;SDS011;70799;48.000;10.584;2023-08-06T06:20:34;3.08;;;1.00;;
81336;SDS011;70799;48.000;10.584;2023-08-06T06:23:07;7.07;;;1.40;;
81336;SDS011;70799;48.000;10.584;2023-08-06T06:25:43;5.30;;;1.30;;
81336;SDS011;70799;48.000;10.584;2023-08-06T06:28:20;2.33;;;1.15;;
81336;SDS011;70799;48.000;10.584;2023-08-06T06:30:53;3.33;;;1.20;;
81336;SDS011;70799;48.000;10.584;2023-08-06T06:33:26;3.65;;;1.00;;
81336;SDS011;70799;48.000;10.584;2023-08-06T06:36:05;2.47;;;1.13;;
81336;SDS011;70799;48.000;10.584;2023-08-06T06:38:43;3.65;;;1.35;;
81336;SDS011;70799;48.000;10.584;2023-08-06T06:41:16;4.13;;;1.50;;
81336;SDS011;70799;48.000;10.584;2023-08-06T06:43:50;2.45;;;0.93;;
81336;SDS011;70799;48.000;10.584;2023-08-06T06:46:32;3.20;;;0.93;;
81336;SDS011;70799;48.000;10.584;2023-08-06T06:49:05;2.47;;;1.20;;
81336;SDS011;70799;48.000;10.584;2023-08-06T06:51:42;2.38;;;0.90;;
81336;SDS011;70799;48.000;10.584;2023-08-06T06:54:15;2.15;;;0.90;;
81336;SDS011;70799;48.000;10.584;2023-08-06T06:56:49;2.03;;;0.75;;
81336;SDS011;70799;48.000;10.584;2023-08-06T06:59:27;2.65;;;0.77;;
81336;SDS011;70799;48.000;10.584;2023-08-06T07:02:02;2.13;;;0.40;;
81336;SDS011;70799;48.000;10.584;2023-08-06T07:04:36;2.50;;;0.68;;
81336;SDS011;70799;48.000;10.584;2023-08-06T07:07:23;2.00;;;0.50;;
81336;SDS011;70799;48.000;10.584;2023-08-06T07:09:56;1.95;;;1.10;;
81336;SDS011;70799;48.000;10.584;2023-08-06T07:12:34;2.42;;;0.30;;
81336;SDS011;70799;48.000;10.584;2023-08-06T07:15:11;1.70;;;0.50;;
81336;SDS011;70799;48.000;10.584;2023-08-06T07:18:02;1.33;;;0.30;;
81336;SDS011;70799;48.000;10.584;2023-08-06T07:20:37;0.73;;;0.47;;
81336;SDS011;70799;48.000;10.584;2023-08-06T07:23:11;0.95;;;0.40;;
81336;SDS011;70799;48.000;10.584;2023-08-06T07:25:53;0.57;;;0.40;;
81336;SDS011;70799;48.000;10.584;2023-08-06T07:28:27;1.77;;;0.30;;
81336;SDS011;70799;48.000;10.584;2023-08-06T07:31:09;1.10;;;0.30;;
81336;SDS011;70799;48.000;10.584;2023-08-06T07:33:42;3.65;;;0.28;;
81336;SDS011;70799;48.000;10.584;2023-08-06T07:36:16;2.65;;;0.32;;
81336;SDS011;70799;48.000;10.584;2023-08-06T07:38:50;1.52;;;0.30;;
81336;SDS011;70799;48.000;10.584;2023-08-06T07:41:27;1.20;;;0.22;;
81336;SDS011;70799;48.000;10.584;2023-08-06T07:44:02;1.23;;;0.40;;
81336;SDS011;70799;48.000;10.584;2023-08-06T07:46:39;2.08;;;0.50;;
81336;SDS011;70799;48.000;10.584;2023-08-06T07:49:14;0.40;;;0.10;;
81336;SDS011;70799;48.000;10.584;2023-08-06T07:51:53;0.80;;;0.40;;
81336;SDS011;70799;48.000;10.584;2023-08-06T07:54:37;0.90;;;0.20;;
81336;SDS011;70799;48.000;10.584;2023-08-06T07:57:12;0.80;;;0.10;;
81336;SDS011;70799;48.000;10.584;2023-08-06T07:59:54;2.47;;;0.30;;
81336;SDS011;70799;48.000;10.584;2023-08-06T08:02:44;1.50;;;0.30;;
81336;SDS011;70799;48.000;10.584;2023-08-06T08:05:18;0.22;;;0.10;;
81336;SDS011;70799;48.000;10.584;2023-08-06T08:08:00;0.22;;;0.10;;
81336;SDS011;70799;48.000;10.584;2023-08-06T08:10:36;1.92;;;0.30;;
81336;SDS011;70799;48.000;10.584;2023-08-06T08:13:12;0.75;;;0.20;;
81336;SDS011;70799;48.000;10.584;2023-08-06T08:15:45;0.47;;;0.20;;
81336;SDS011;70799;48.000;10.584;2023-08-06T08:18:19;2.83;;;0.20;;
81336;SDS011;70799;48.000;10.584;2023-08-06T08:20:57;0.85;;;0.10;;
81336;SDS011;70799;48.000;10.584;2023-08-06T08:23:36;1.65;;;0.25;;
81336;SDS011;70799;48.000;10.584;2023-08-06T08:26:10;1.85;;;0.10;;
81336;SDS011;70799;48.000;10.584;2023-08-06T08:28:44;1.20;;;0.10;;
81336;SDS011;70799;48.000;10.584;2023-08-06T08:31:19;1.27;;;0.20;;
81336;SDS011;70799;48.000;10.584;2023-08-06T08:36:43;0.50;;;0.10;;
81336;SDS011;70799;48.000;10.584;2023-08-06T08:39:18;1.35;;;0.20;;
81336;SDS011;70799;48.000;10.584;2023-08-06T08:42:02;2.38;;;0.10;;
81336;SDS011;70799;48.000;10.584;2023-08-06T08:44:39;1.45;;;0.25;;
81336;SDS011;70799;48.000;10.584;2023-08-06T08:47:19;0.82;;;0.20;;
81336;SDS011;70799;48.000;10.584;2023-08-06T08:49:55;0.93;;;0.10;;
81336;SDS011;70799;48.000;10.584;2023-08-06T08:52:30;0.82;;;0.30;;
81336;SDS011;70799;48.000;10.584;2023-08-06T08:55:04;2.60;;;0.80;;
81336;SDS011;70799;48.000;10.584;2023-08-06T08:57:49;0.17;;;0.10;;
81336;SDS011;70799;48.000;10.584;2023-08-06T09:00:27;0.57;;;0.20;;
81336;SDS011;70799;48.000;10.584;2023-08-06T09:03:07;2.22;;;0.20;;
81336;SDS011;70799;48.000;10.584;2023-08-06T09:05:43;0.75;;;0.45;;
81336;SDS011;70799;48.000;10.584;2023-08-06T09:08:27;0.52;;;0.20;;
81336;SDS011;70799;48.000;10.584;2023-08-06T09:11:10;0.93;;;0.10;;
81336;SDS011;70799;48.000;10.584;2023-08-06T09:14:01;1.02;;;0.17;;
81336;SDS011;70799;48.000;10.584;2023-08-06T09:16:35;0.82;;;0.20;;
81336;SDS011;70799;48.000;10.584;2023-08-06T09:19:14;0.30;;;0.15;;
81336;SDS011;70799;48.000;10.584;2023-08-06T09:21:54;1.17;;;0.10;;
81336;SDS011;70799;48.000;10.584;2023-08-06T09:24:29;0.75;;;0.10;;
81336;SDS011;70799;48.000;10.584;2023-08-06T09:27:05;1.00;;;0.30;;
81336;SDS011;70799;48.000;10.584;2023-08-06T09:29:46;1.55;;;0.10;;
81336;SDS011;70799;48.000;10.584;2023-08-06T09:32:46;0.73;;;0.20;;
81336;SDS011;70799;48.000;10.584;2023-08-06T09:35:31;0.57;;;0.30;;
81336;SDS011;70799;48.000;10.584;2023-08-06T09:38:08;0.20;;;0.10;;
81336;SDS011;70799;48.000;10.584;2023-08-06T09:40:43;0.52;;;0.10;;
81336;SDS011;70799;48.000;10.584;2023-08-06T09:43:18;1.08;;;0.17;;
81336;SDS011;70799;48.000;10.584;2023-08-06T09:45:58;1.10;;;0.10;;
81336;SDS011;70799;48.000;10.584;2023-08-06T09:48:32;0.77;;;0.22;;
81336;SDS011;70799;48.000;10.584;2023-08-06T09:51:13;0.98;;;0.25;;
81336;SDS011;70799;48.000;10.584;2023-08-06T09:53:47;0.98;;;0.20;;
81336;SDS011;70799;48.000;10.584;2023-08-06T09:56:26;1.67;;;0.28;;
81336;SDS011;70799;48.000;10.584;2023-08-06T09:59:00;0.57;;;0.20;;
81336;SDS011;70799;48.000;10.584;2023-08-06T10:01:47;0.47;;;0.10;;
81336;SDS011;70799;48.000;10.584;2023-08-06T10:04:21;0.55;;;0.20;;
81336;SDS011;70799;48.000;10.584;2023-08-06T10:07:12;0.25;;;0.10;;
81336;SDS011;70799;48.000;10.584;2023-08-06T10:10:03;0.98;;;0.28;;
81336;SDS011;70799;48.000;10.584;2023-08-06T10:12:46;0.45;;;0.10;;
81336;SDS011;70799;48.000;10.584;2023-08-06T10:15:25;0.50;;;0.20;;
81336;SDS011;70799;48.000;10.584;2023-08-06T10:18:00;0.50;;;0.20;;
81336;SDS011;70799;48.000;10.584;2023-08-06T10:20:36;0.77;;;0.20;;
81336;SDS011;70799;48.000;10.584;2023-08-06T10:23:10;1.85;;;0.10;;
81336;SDS011;70799;48.000;10.584;2023-08-06T10:25:53;0.57;;;0.00;;
81336;SDS011;70799;48.000;10.584;2023-08-06T10:28:35;1.17;;;0.10;;
81336;SDS011;70799;48.000;10.584;2023-08-06T10:37:36;0.60;;;0.10;;
81336;SDS011;70799;48.000;10.584;2023-08-06T10:40:20;0.15;;;0.10;;
81336;SDS011;70799;48.000;10.584;2023-08-06T10:43:04;0.00;;;0.00;;
81336;SDS011;70799;48.000;10.584;2023-08-06T10:45:40;0.20;;;0.10;;
81336;SDS011;70799;48.000;10.584;2023-08-06T10:48:39;1.33;;;0.20;;
81336;SDS011;70799;48.000;10.584;2023-08-06T10:51:13;0.40;;;0.20;;
81336;SDS011;70799;48.000;10.584;2023-08-06T10:53:48;0.22;;;0.10;;
81336;SDS011;70799;48.000;10.584;2023-08-06T10:59:02;0.77;;;0.10;;
81336;SDS011;70799;48.000;10.584;2023-08-06T11:01:36;0.45;;;0.10;;
81336;SDS011;70799;48.000;10.584;2023-08-06T11:04:12;0.17;;;0.10;;
81336;SDS011;70799;48.000;10.584;2023-08-06T11:06:51;0.20;;;0.10;;
81336;SDS011;70799;48.000;10.584;2023-08-06T11:09:34;1.27;;;0.17;;
81336;SDS011;70799;48.000;10.584;2023-08-06T11:12:11;0.45;;;0.10;;
81336;SDS011;70799;48.000;10.584;2023-08-06T11:14:51;0.85;;;0.17;;
81336;SDS011;70799;48.000;10.584;2023-08-06T11:17:29;0.15;;;0.10;;
81336;SDS011;70799;48.000;10.584;2023-08-06T11:20:18;0.05;;;0.05;;
81336;SDS011;70799;48.000;10.584;2023-08-06T11:23:00;0.10;;;0.10;;
81336;SDS011;70799;48.000;10.584;2023-08-06T11:25:45;0.30;;;0.10;;
81336;SDS011;70799;48.000;10.584;2023-08-06T11:28:23;0.10;;;0.10;;
81336;SDS011;70799;48.000;10.584;2023-08-06T11:31:20;0.20;;;0.20;;
81336;SDS011;70799;48.000;10.584;2023-08-06T11:33:57;0.10;;;0.10;;
81336;SDS011;70799;48.000;10.584;2023-08-06T11:39:13;0.25;;;0.20;;
81336;SDS011;70799;48.000;10.584;2023-08-06T11:41:54;0.10;;;0.10;;
81336;SDS011;70799;48.000;10.584;2023-08-06T11:44:29;0.57;;;0.25;;
81336;SDS011;70799;48.000;10.584;2023-08-06T11:47:11;0.00;;;0.00;;
81336;SDS011;70799;48.000;10.584;2023-08-06T11:49:49;0.15;;;0.10;;
81336;SDS011;70799;48.000;10.584;2023-08-06T11:52:23;0.10;;;0.00;;
81336;SDS011;70799;48.000;10.584;2023-08-06T11:55:05;0.50;;;0.22;;
81336;SDS011;70799;48.000;10.584;2023-08-06T12:01:00;0.95;;;0.10;;
81336;SDS011;70799;48.000;10.584;2023-08-06T12:03:40;0.13;;;0.00;;
81336;SDS011;70799;48.000;10.584;2023-08-06T12:06:15;0.50;;;0.10;;
81336;SDS011;70799;48.000;10.584;2023-08-06T12:08:51;1.27;;;0.13;;
81336;SDS011;70799;48.000;10.584;2023-08-06T12:11:25;0.77;;;0.08;;
81336;SDS011;70799;48.000;10.584;2023-08-06T12:14:01;0.40;;;0.10;;
81336;SDS011;70799;48.000;10.584;2023-08-06T12:16:34;0.88;;;0.10;;
81336;SDS011;70799;48.000;10.584;2023-08-06T12:19:08;0.20;;;0.10;;
81336;SDS011;70799;48.000;10.584;2023-08-06T12:21:41;0.43;;;0.08;;
81336;SDS011;70799;48.000;10.584;2023-08-06T12:24:16;0.47;;;0.30;;
81336;SDS011;70799;48.000;10.584;2023-08-06T12:26:59;1.10;;;0.20;;
81336;SDS011;70799;48.000;10.584;2023-08-06T12:29:34;0.22;;;0.10;;
81336;SDS011;70799;48.000;10.584;2023-08-06T12:32:07;0.25;;;0.20;;
81336;SDS011;70799;48.000;10.584;2023-08-06T12:34:40;1.38;;;0.20;;
81336;SDS011;70799;48.000;10.584;2023-08-06T12:37:24;0.20;;;0.10;;
81336;SDS011;70799;48.000;10.584;2023-08-06T12:39:58;1.50;;;0.30;;
81336;SDS011;70799;48.000;10.584;2023-08-06T12:42:55;1.17;;;0.30;;
81336;SDS011;70799;48.000;10.584;2023-08-06T12:45:32;3.05;;;0.20;;
81336;SDS011;70799;48.000;10.584;2023-08-06T12:48:05;0.88;;;0.15;;
81336;SDS011;70799;48.000;10.584;2023-08-06T12:50:39;0.40;;;0.08;;
81336;SDS011;70799;48.000;10.584;2023-08-06T12:53:12;1.83;;;0.30;;
81336;SDS011;70799;48.000;10.584;2023-08-06T12:55:46;0.20;;;0.20;;
81336;SDS011;70799;48.000;10.584;2023-08-06T12:58:19;0.50;;;0.20;;
81336;SDS011;70799;48.000;10.584;2023-08-06T13:00:53;0.10;;;0.10;;
81336;SDS011;70799;48.000;10.584;2023-08-06T13:03:26;1.23;;;0.10;;
81336;SDS011;70799;48.000;10.584;2023-08-06T13:06:03;0.75;;;0.35;;
81336;SDS011;70799;48.000;10.584;2023-08-06T13:08:37;0.70;;;0.40;;
81336;SDS011;70799;48.000;10.584;2023-08-06T13:11:11;0.30;;;0.30;;
81336;SDS011;70799;48.000;10.584;2023-08-06T13:13:45;0.20;;;0.10;;
81336;SDS011;70799;48.000;10.584;2023-08-06T13:16:18;0.20;;;0.20;;
81336;SDS011;70799;48.000;10.584;2023-08-06T13:18:51;0.17;;;0.17;;
81336;SDS011;70799;48.000;10.584;2023-08-06T13:21:31;0.28;;;0.10;;
81336;SDS011;70799;48.000;10.584;2023-08-06T13:24:25;0.10;;;0.10;;
81336;SDS011;70799;48.000;10.584;2023-08-06T13:27:02;1.35;;;0.10;;
81336;SDS011;70799;48.000;10.584;2023-08-06T13:29:35;0.98;;;0.25;;
81336;SDS011;70799;48.000;10.584;2023-08-06T13:32:09;0.30;;;0.30;;
81336;SDS011;70799;48.000;10.584;2023-08-06T13:34:42;0.70;;;0.10;;
81336;SDS011;70799;48.000;10.584;2023-08-06T13:37:15;0.40;;;0.30;;
81336;SDS011;70799;48.000;10.584;2023-08-06T13:39:50;0.13;;;0.10;;
81336;SDS011;70799;48.000;10.584;2023-08-06T13:42:26;1.00;;;0.20;;
81336;SDS011;70799;48.000;10.584;2023-08-06T13:45:01;0.30;;;0.10;;
81336;SDS011;70799;48.000;10.584;2023-08-06T13:47:35;0.20;;;0.20;;
81336;SDS011;70799;48.000;10.584;2023-08-06T13:50:08;0.10;;;0.10;;
81336;SDS011;70799;48.000;10.584;2023-08-06T13:52:41;0.10;;;0.10;;
81336;SDS011;70799;48.000;10.584;2023-08-06T13:55:14;0.73;;;0.20;;
81336;SDS011;70799;48.000;10.584;2023-08-06T13:57:48;0.32;;;0.20;;
81336;SDS011;70799;48.000;10.584;2023-08-06T14:00:21;0.45;;;0.10;;
81336;SDS011;70799;48.000;10.584;2023-08-06T14:02:54;0.25;;;0.20;;
81336;SDS011;70799;48.000;10.584;2023-08-06T14:05:27;0.15;;;0.10;;
81336;SDS011;70799;48.000;10.584;2023-08-06T14:08:00;0.22;;;0.10;;
81336;SDS011;70799;48.000;10.584;2023-08-06T14:10:34;0.10;;;0.08;;
81336;SDS011;70799;48.000;10.584;2023-08-06T14:13:07;0.22;;;0.20;;
81336;SDS011;70799;48.000;10.584;2023-08-06T14:15:42;1.10;;;0.15;;
81336;SDS011;70799;48.000;10.584;2023-08-06T14:18:18;0.10;;;0.00;;
81336;SDS011;70799;48.000;10.584;2023-08-06T14:20:52;0.30;;;0.20;;
81336;SDS011;70799;48.000;10.584;2023-08-06T14:23:26;0.00;;;0.00;;
81336;SDS011;70799;48.000;10.584;2023-08-06T14:25:59;1.00;;;0.10;;
81336;SDS011;70799;48.000;10.584;2023-08-06T14:28:33;0.20;;;0.20;;
81336;SDS011;70799;48.000;10.584;2023-08-06T14:31:06;0.00;;;0.00;;
81336;SDS011;70799;48.000;10.584;2023-08-06T14:33:39;0.65;;;0.20;;
81336;SDS011;70799;48.000;10.584;2023-08-06T14:36:12;0.08;;;0.08;;
81336;SDS011;70799;48.000;10.584;2023-08-06T14:38:46;0.57;;;0.20;;
81336;SDS011;70799;48.000;10.584;2023-08-06T14:41:31;0.30;;;0.00;;
81336;SDS011;70799;48.000;10.584;2023-08-06T14:44:06;1.17;;;0.20;;
81336;SDS011;70799;48.000;10.584;2023-08-06T14:46:39;0.73;;;0.20;;
81336;SDS011;70799;48.000;10.584;2023-08-06T14:49:13;0.30;;;0.10;;
81336;SDS011;70799;48.000;10.584;2023-08-06T14:51:46;0.45;;;0.20;;
81336;SDS011;70799;48.000;10.584;2023-08-06T14:54:20;0.65;;;0.10;;
81336;SDS011;70799;48.000;10.584;2023-08-06T14:56:54;0.00;;;0.00;;
81336;SDS011;70799;48.000;10.584;2023-08-06T14:59:32;0.35;;;0.20;;
81336;SDS011;70799;48.000;10.584;2023-08-06T15:02:13;0.55;;;0.10;;
81336;SDS011;70799;48.000;10.584;2023-08-06T15:04:46;0.08;;;0.00;;
81336;SDS011;70799;48.000;10.584;2023-08-06T15:07:32;0.20;;;0.20;;
81336;SDS011;70799;48.000;10.584;2023-08-06T15:10:06;0.43;;;0.20;;
81336;SDS011;70799;48.000;10.584;2023-08-06T15:13:01;0.55;;;0.20;;
81336;SDS011;70799;48.000;10.584;2023-08-06T15:15:40;0.25;;;0.20;;
81336;SDS011;70799;48.000;10.584;2023-08-06T15:18:16;0.30;;;0.20;;
81336;SDS011;70799;48.000;10.584;2023-08-06T15:20:50;0.50;;;0.10;;
81336;SDS011;70799;48.000;10.584;2023-08-06T15:23:24;0.57;;;0.22;;
81336;SDS011;70799;48.000;10.584;2023-08-06T15:25:57;0.85;;;0.20;;
81336;SDS011;70799;48.000;10.584;2023-08-06T15:28:32;0.20;;;0.10;;
81336;SDS011;70799;48.000;10.584;2023-08-06T15:31:07;0.17;;;0.10;;
81336;SDS011;70799;48.000;10.584;2023-08-06T15:33:45;0.43;;;0.20;;
81336;SDS011;70799;48.000;10.584;2023-08-06T15:36:18;1.13;;;0.20;;
81336;SDS011;70799;48.000;10.584;2023-08-06T15:38:52;0.50;;;0.10;;
81336;SDS011;70799;48.000;10.584;2023-08-06T15:41:30;0.38;;;0.20;;
81336;SDS011;70799;48.000;10.584;2023-08-06T15:44:06;0.40;;;0.22;;
81336;SDS011;70799;48.000;10.584;2023-08-06T15:46:40;0.43;;;0.20;;
81336;SDS011;70799;48.000;10.584;2023-08-06T15:49:18;0.60;;;0.20;;
81336;SDS011;70799;48.000;10.584;2023-08-06T15:51:51;0.30;;;0.30;;
81336;SDS011;70799;48.000;10.584;2023-08-06T15:54:28;0.57;;;0.30;;